Forside
METAR-TAF:

METAR-TAF

Lufthavne :

Door County Cherryland Airport

Sturgeon Bay, Wisconsin, USA

Breddekreds: 44-51N, længdekreds: 087-25W, højde: 221 m

Aktuelle vejr

Denne rapport blev lavet for 45 minutter siden, kl. 05:56 UTC
Vind stille
Temperatur 4°C
Fugtighed 93%
Tryk 1022 hPa
Sigt: 16.1 km
skyfri

METAR: KSUE 210556Z AUTO 00000KT 10SM CLR 04/03 A3017 RMK AO2 SLP242 T00440028 10117 20044 401440044 55001

Tid: 01:41 (06:41 UTC)


TAF: fraværende

Vejrobservationer og prognoser fra mere end 4000 lufthavne (METAR og TAF).

De gule og røde prikker repræsenterer de meteorologiske stationer.

Flyt musen over at se navnet på stationen.

Så klik over at se vejr observationer og prognoser.

At skifte det kort: Klik på de grønne knapper med et sort kors for at zoome ind; på den grønne knap med en bindestreg for at zoome ud; eller på de grønne pile for tilstødende kort.


METAR-TAF: